Nearby METAR Reports

 

KOAK - Oakland, California, USA
Distance from station: SSW 6mi, 9km
Updated: Mon, 22-Apr-2019 2:53am PDT
Few Clouds
Few Clouds
 Wind from N
Wind: N 6 mph , 9 km/h
Temperature: 52°F , 11°C
Dew Point: 46°F , 8°C
Humidity: 82%
Barometer: 30.09 inHg , 1019 hPa
Clouds: Few Clouds
Visibility: 10 miles , 16 km
Cloud details: Few Clouds 1000 ft
2019/04/22 09:53 KOAK 220953Z 01005KT 10SM FEW010 11/08 A3009 RMK AO2 SLP188 T01110083
KHWD - Hayward, California, USA
Distance from station: SSE 8mi, 12km
Updated: Mon, 22-Apr-2019 2:54am PDT
Clear
Clear
 Wind from ENE
Wind: ENE 3 mph , 6 km/h
Temperature: 50°F , 10°C
Dew Point: 46°F , 8°C
Humidity: 88%
Barometer: 30.08 inHg , 1018.6 hPa
Clouds: Clear
Visibility: 9 miles , 14 km
2019/04/22 09:54 KHWD 220954Z 07003KT 9SM CLR 10/08 A3008 RMK AO2 SLP197 T01000078
KSFO - San Francisco, California, USA
Distance from station: SW 15mi, 25km
Updated: Mon, 22-Apr-2019 2:56am PDT
Clear
Clear
 Wind from WNW
Wind: WNW 8 mph , 13 km/h
Temperature: 50°F , 10°C
Wind Chill: 47°F , 8°C
Dew Point: 46°F , 8°C
Humidity: 88%
Barometer: 30.09 inHg , 1019 hPa
Clouds: Clear
Visibility: 10 miles , 16 km
2019/04/22 09:56 KSFO 220956Z 29007KT 10SM CLR 10/08 A3009 RMK AO2 SLP188 T01000078
 
KCCR - Concord, California, USA
Distance from station: NNE 17mi, 27km
Updated: Mon, 22-Apr-2019 2:53am PDT
Clear
Clear
 Wind from S
Wind: S 6 mph , 9 km/h
Temperature: 54°F , 12°C
Dew Point: 46°F , 8°C
Humidity: 77%
Barometer: 30.08 inHg , 1018.6 hPa
Clouds: Clear
Visibility: 10 miles , 16 km
2019/04/22 09:53 KCCR 220953Z AUTO 17005KT 10SM CLR 12/08 A3008 RMK AO2 SLP170 T01170078
KSQL - San Carlos Airpo, California, USA
Distance from station: SSW 18mi, 29km
Updated: Mon, 22-Apr-2019 3:35am PDT
Clear
Clear
 Wind from calm
Wind: Calm
Temperature: 50°F , 10°C
Dew Point: 46°F , 8°C
Humidity: 88%
Barometer: 30.08 inHg , 1018.6 hPa
Clouds: Clear
Visibility: 8 miles , 13 km
2019/04/22 10:35 KSQL 221035Z AUTO 00000KT 8SM CLR 10/08 A3008 RMK AO2
KLVK - Livermore, California, USA
Distance from station: ESE 20mi, 31km
Updated: Mon, 22-Apr-2019 2:53am PDT
Mist, Clear
Mist, Clear
 Wind from calm
Wind: Calm
Temperature: 48°F , 9°C
Dew Point: 45°F , 7°C
Humidity: 87%
Barometer: 30.08 inHg , 1018.6 hPa
Summary: Mist
Clouds: Clear
Visibility: 6 miles , 10 km
2019/04/22 09:53 KLVK 220953Z AUTO 00000KT 6SM BR CLR 09/07 A3008 RMK AO2 SLP183 T00890067
 
KPAO - Palo Alto, California, USA
Distance from station: S 21mi, 34km
Updated: Sun, 21-Apr-2019 8:47pm PDT
NOT Current
Clear
Clear
 Wind from NNW
Wind: NNW 10 mph , 17 km/h
Temperature: 54°F , 12°C
Dew Point: 46°F , 8°C
Humidity: 77%
Barometer: 30.09 inHg , 1019 hPa
Clouds: Clear
Visibility: 10 miles , 16 km
2019/04/22 03:47 KPAO 220347Z 33009KT 10SM SKC 12/08 A3009 RMK LAST
KHAF - Half Moon Bay, California, USA
Distance from station: SW 25mi, 41km
Updated: Mon, 22-Apr-2019 3:40am PDT
Mist, Overcast
Mist, Overcast
 Wind from calm
Wind: Calm
Temperature: 50°F , 10°C
Dew Point: 46°F , 8°C
Humidity: 88%
Barometer: 30.10 inHg , 1019.3 hPa
Summary: Mist
Clouds: Overcast
Visibility: 4 miles , 6 km
Cloud details: Overcast 900 ft
2019/04/22 10:40 KHAF 221040Z AUTO 00000KT 4SM BR OVC009 10/08 A3010 RMK AO2
KNUQ - Moffett Nas/Mtn, California, USA
Distance from station: SSE 26mi, 42km
Updated: Mon, 22-Apr-2019 2:56am PDT
Clear
Clear
 Wind from calm
Wind: Calm
Temperature: 54°F , 12°C
Dew Point: 48°F , 9°C
Humidity: 82%
Barometer: 30.09 inHg , 1019 hPa
Clouds: Clear
Visibility: 10 miles , 16 km
2019/04/22 09:56 KNUQ 220956Z 00000KT 10SM CLR 12/09 A3009 RMK AO2 SLP192 T01170089 $
 
KAPC - Napa, California, USA
Distance from station: NNW 30mi, 49km
Updated: Mon, 22-Apr-2019 3:43am PDT
Mist, Overcast
Mist, Overcast
 Wind from calm
Wind: Calm
Temperature: 43°F , 6°C
Dew Point: 43°F , 6°C
Humidity: 100%
Barometer: 30.07 inHg , 1018.3 hPa
Summary: Mist
Clouds: Overcast
Visibility: 3/4 mile , 1.2 km
Cloud details: Overcast 800 ft
2019/04/22 10:43 KAPC 221043Z AUTO 00000KT 3/4SM BR VV008 06/06 A3007 RMK AO2 T00610056
KSJC - San Jose, California, USA
Distance from station: SSE 31mi, 50km
Updated: Mon, 22-Apr-2019 2:53am PDT
Clear
Clear
 Wind from NNW
Wind: NNW 3 mph , 6 km/h
Temperature: 50°F , 10°C
Dew Point: 46°F , 8°C
Humidity: 88%
Barometer: 30.09 inHg , 1019 hPa
Clouds: Clear
Visibility: 10 miles , 16 km
2019/04/22 09:53 KSJC 220953Z AUTO 33003KT 10SM CLR 10/08 A3009 RMK AO2 SLP187 T01000083 $
KDVO - Novato/Gnoss Fld, California, USA
Distance from station: NW 34mi, 54km
Updated: Mon, 22-Apr-2019 3:35am PDT
Clear
Clear
 Wind from calm
Wind: Calm
Temperature: 48°F , 9°C
Dew Point: 46°F , 8°C
Humidity: 94%
Barometer: 30.09 inHg , 1019 hPa
Clouds: Clear
Visibility: 10 miles , 16 km
2019/04/22 10:35 KDVO 221035Z AUTO 00000KT 10SM CLR 09/08 A3009 RMK AO2
 
KRHV - San Jose/Reid, California, USA
Distance from station: SSE 37mi, 59km
Updated: Sun, 21-Apr-2019 9:50pm PDT
NOT Current
Clear
Clear
 Wind from calm
Wind: Calm
Temperature: 55°F , 13°C
Dew Point: 46°F , 8°C
Humidity: 72%
Barometer: 30.11 inHg , 1019.6 hPa
Clouds: Clear
Visibility: 10 miles , 16 km
2019/04/22 04:50 KRHV 220450Z 00000KT 10SM SKC 13/08 A3011 RMK LAST
KSUU - Travis Afb/Fairf, California, USA
Distance from station: NNE 37mi, 59km
Updated: Mon, 22-Apr-2019 2:58am PDT
Clear
Clear
 Wind from SSW
Wind: SSW 6 mph , 9 km/h
Temperature: 50°F , 10°C
Wind Chill: 48°F , 9°C
Dew Point: 46°F , 8°C
Humidity: 88%
Barometer: 30.05 inHg , 1017.6 hPa
Clouds: Clear
Visibility: 10 miles , 16 km
2019/04/22 09:58 KSUU 220958Z AUTO 21005KT 10SM CLR 10/08 A3005 RMK AO2 SLP183 T00970075 $
KO69 - Petaluma, California, USA
Distance from station: NW 41mi, 66km
Updated: Mon, 22-Apr-2019 3:35am PDT
Clear
Clear
 Wind from calm
Wind: Calm
Temperature: 45°F , 7°C
Dew Point: 45°F , 7°C
Humidity: 100%
Barometer: 30.08 inHg , 1018.6 hPa
Clouds: Clear
Visibility: 10 miles , 16 km
2019/04/22 10:35 KO69 221035Z AUTO 00000KT 10SM CLR 07/07 A3008 RMK A01
 
KVCB - Vacaville, California, USA
Distance from station: NNE 44mi, 71km
Updated: Mon, 22-Apr-2019 2:53am PDT
Clear
Clear
 Wind from calm
Wind: Calm
Temperature: 48°F , 9°C
Dew Point: 46°F , 8°C
Humidity: 94%
Barometer: 30.06 inHg , 1017.9 hPa
Clouds: Clear
Visibility: 10 miles , 16 km
2019/04/22 09:53 KVCB 220953Z AUTO 00000KT 10SM CLR 09/08 A3006 RMK AO2 SLP178 T00940078